Time;durP1;ratioP1;P1;durP2;ratioP2;P2;SDS_P1;SDS_P2;PMS_P1;PMS_P2;Temp;Humidity;BMP_temperature;BMP_pressure;BME280_temperature;BME280_humidity;BME280_pressure;Samples;Min_cycle;Max_cycle;Signal;HPM_P1;HPM_P2
2021/01/07 00:00:08;;;;;;;4.70;4.40;;;6.30;49.80;;;;;;4888178;29;20175;-93
2021/01/07 00:02:43;;;;;;;5.20;4.75;;;6.20;50.30;;;;;;4888036;29;20186;-91
2021/01/07 00:05:09;;;;;;;4.93;4.53;;;6.40;49.80;;;;;;4888268;29;20694;-91
2021/01/07 00:07:46;;;;;;;4.70;4.20;;;6.00;50.10;;;;;;4887545;29;20214;-91
2021/01/07 00:10:12;;;;;;;5.18;4.68;;;6.00;50.00;;;;;;4888102;29;20175;-91
2021/01/07 00:12:39;;;;;;;4.00;3.67;;;6.20;49.80;;;;;;4888540;29;20677;-91
2021/01/07 00:15:05;;;;;;;4.95;4.55;;;5.70;49.10;;;;;;4893128;29;20499;-90
2021/01/07 00:17:31;;;;;;;4.93;4.50;;;6.30;49.80;;;;;;4870934;29;20634;-91
2021/01/07 00:19:57;;;;;;;4.67;4.27;;;5.90;48.90;;;;;;4872404;29;20169;-91
2021/01/07 00:22:22;;;;;;;4.97;4.50;;;6.60;49.20;;;;;;4869368;29;20408;-91
2021/01/07 00:24:48;;;;;;;4.23;3.83;;;6.60;48.70;;;;;;4876065;29;20168;-91
2021/01/07 00:27:14;;;;;;;5.80;4.13;;;6.70;49.10;;;;;;4892581;29;20183;-91
2021/01/07 00:29:40;;;;;;;4.40;4.00;;;6.80;48.70;;;;;;4869295;29;20227;-91
2021/01/07 00:32:06;;;;;;;4.17;3.87;;;6.90;48.70;;;;;;4880643;29;20183;-91
2021/01/07 00:34:31;;;;;;;5.20;4.73;;;7.20;48.70;;;;;;4876132;29;20541;-90
2021/01/07 00:36:57;;;;;;;5.70;5.10;;;6.90;48.20;;;;;;4876360;29;20416;-91
2021/01/07 00:39:25;;;;;;;5.32;4.82;;;7.10;48.30;;;;;;4876497;29;20183;-91
2021/01/07 00:41:59;;;;;;;5.70;4.65;;;6.20;47.60;;;;;;4874290;29;20511;-91
2021/01/07 00:44:31;;;;;;;4.65;4.03;;;6.60;48.70;;;;;;4866837;29;20191;-91
2021/01/07 00:46:56;;;;;;;6.43;5.03;;;6.70;47.80;;;;;;4867136;29;20172;-91
2021/01/07 00:49:32;;;;;;;4.90;4.50;;;6.30;47.80;;;;;;4854356;29;20181;-88
2021/01/07 00:51:58;;;;;;;4.75;4.30;;;5.80;47.80;;;;;;4866809;29;20699;-89
2021/01/07 00:54:39;;;;;;;5.03;4.63;;;5.80;48.00;;;;;;4866313;29;20173;-89
2021/01/07 00:57:04;;;;;;;5.55;4.47;;;6.30;48.20;;;;;;4883591;29;20638;-93
2021/01/07 00:59:54;;;;;;;5.70;4.93;;;6.10;48.70;;;;;;4875937;29;20173;-92
2021/01/07 01:02:20;;;;;;;4.90;4.40;;;6.50;50.00;;;;;;4867533;29;20177;-91
2021/01/07 01:05:16;;;;;;;6.53;5.97;;;5.80;48.50;;;;;;4867625;29;20172;-92
2021/01/07 01:07:42;;;;;;;6.30;5.32;;;6.20;49.40;;;;;;4867993;29;20180;-92
2021/01/07 01:10:09;;;;;;;5.27;4.77;;;6.10;49.50;;;;;;4867196;29;20319;-93
2021/01/07 01:12:35;;;;;;;4.97;4.50;;;6.00;50.40;;;;;;4866780;29;20551;-91
2021/01/07 01:15:13;;;;;;;5.53;4.67;;;6.10;49.50;;;;;;4867104;29;20168;-92
2021/01/07 01:17:39;;;;;;;4.95;4.47;;;6.20;49.10;;;;;;4867026;29;20419;-91
2021/01/07 01:20:31;;;;;;;4.97;4.47;;;6.30;49.10;;;;;;4867294;29;20216;-92
2021/01/07 01:22:57;;;;;;;4.65;4.25;;;6.30;49.50;;;;;;4866648;29;20173;-91
2021/01/07 01:25:37;;;;;;;3.90;3.60;;;6.30;48.60;;;;;;4866781;29;20237;-91
2021/01/07 01:28:03;;;;;;;5.32;4.35;;;6.70;49.10;;;;;;4866961;29;20620;-92
2021/01/07 01:30:28;;;;;;;4.63;4.23;;;6.30;48.20;;;;;;4867817;29;20287;-92
2021/01/07 01:32:55;;;;;;;5.83;5.13;;;6.70;48.30;;;;;;4867151;29;20477;-92
2021/01/07 01:35:21;;;;;;;5.72;4.53;;;6.20;47.80;;;;;;4867236;29;20651;-92
2021/01/07 01:37:47;;;;;;;6.90;5.40;;;6.60;48.10;;;;;;4866846;29;20172;-92
2021/01/07 01:40:32;;;;;;;5.00;4.53;;;6.80;48.10;;;;;;4866831;29;20181;-92
2021/01/07 01:42:58;;;;;;;4.88;4.35;;;6.70;48.50;;;;;;4866723;29;20172;-92
2021/01/07 01:45:48;;;;;;;4.00;3.53;;;6.60;48.00;;;;;;4867090;29;20204;-92
2021/01/07 01:48:14;;;;;;;4.15;3.75;;;6.60;48.50;;;;;;4866584;29;20464;-92
2021/01/07 01:50:39;;;;;;;4.13;3.73;;;6.80;48.00;;;;;;4867481;29;20172;-92
2021/01/07 01:53:18;;;;;;;4.37;3.97;;;6.20;47.40;;;;;;4867377;29;20204;-92
2021/01/07 01:55:43;;;;;;;4.35;3.97;;;6.80;48.10;;;;;;4870584;29;20409;-92
2021/01/07 01:58:21;;;;;;;4.93;4.40;;;6.80;47.80;;;;;;4871032;29;20224;-93
2021/01/07 02:00:47;;;;;;;5.00;4.55;;;6.80;47.80;;;;;;4869439;29;20164;-88
2021/01/07 02:03:54;;;;;;;5.10;4.60;;;6.90;48.00;;;;;;4868907;29;20564;-87
2021/01/07 02:06:24;;;;;;;5.68;5.18;;;6.80;48.50;;;;;;4868311;29;20220;-89
2021/01/07 02:09:06;;;;;;;5.13;4.25;;;6.40;47.70;;;;;;4870168;29;20177;-88
2021/01/07 02:11:33;;;;;;;5.47;4.78;;;6.60;48.40;;;;;;4868879;29;20509;-89
2021/01/07 02:14:00;;;;;;;5.15;4.65;;;7.00;48.50;;;;;;4869327;29;20196;-89
2021/01/07 02:16:52;;;;;;;6.05;5.38;;;6.20;47.70;;;;;;4869837;29;20169;-89
2021/01/07 02:19:18;;;;;;;5.15;4.65;;;6.80;48.70;;;;;;4869015;29;20199;-89
2021/01/07 02:21:43;;;;;;;5.53;5.00;;;6.90;48.00;;;;;;4869411;29;20168;-89
2021/01/07 02:27:31;;;;;;;9.07;5.90;;;6.80;48.40;;;;;;4885125;29;20168;-88
2021/01/07 02:29:56;;;;;;;6.23;5.63;;;6.80;47.60;;;;;;4880249;29;20227;-92
2021/01/07 02:32:35;;;;;;;6.07;5.50;;;6.90;47.70;;;;;;4888641;29;20306;-89
2021/01/07 02:35:01;;;;;;;5.10;4.70;;;6.30;47.30;;;;;;4887096;29;20638;-89
2021/01/07 02:37:27;;;;;;;4.93;4.50;;;6.60;47.70;;;;;;4887094;29;20171;-89
2021/01/07 02:40:21;;;;;;;5.17;4.67;;;6.80;47.90;;;;;;4886945;29;20172;-89
2021/01/07 02:42:47;;;;;;;4.93;4.55;;;6.80;48.50;;;;;;4886623;29;20214;-91
2021/01/07 02:45:13;;;;;;;4.80;4.00;;;6.80;47.70;;;;;;4886991;29;20167;-88
2021/01/07 02:47:45;;;;;;;5.57;5.03;;;6.80;47.90;;;;;;4886604;29;20657;-88
2021/01/07 02:50:11;;;;;;;5.38;4.82;;;6.30;47.40;;;;;;4888062;29;20416;-92
2021/01/07 02:53:18;;;;;;;7.55;4.32;;;7.00;48.00;;;;;;4887803;29;20297;-92
2021/01/07 02:55:46;;;;;;;5.53;5.03;;;6.90;48.50;;;;;;4877966;29;20215;-92
2021/01/07 03:03:27;;;;;;;5.40;4.90;;;6.90;48.50;;;;;;4920825;29;20246;-89
2021/01/07 03:05:52;;;;;;;5.30;4.57;;;6.50;47.60;;;;;;4904712;29;20618;-89
2021/01/07 03:08:18;;;;;;;5.13;4.63;;;6.70;47.90;;;;;;4922131;29;20157;-88
2021/01/07 03:10:50;;;;;;;5.13;4.63;;;6.90;48.20;;;;;;4905406;29;20178;-89
2021/01/07 03:13:16;;;;;;;4.70;4.25;;;6.60;48.10;;;;;;4921957;29;20195;-89
2021/01/07 03:15:41;;;;;;;5.70;5.27;;;6.60;48.10;;;;;;4904619;29;20172;-89
2021/01/07 03:18:07;;;;;;;4.90;4.50;;;6.80;48.30;;;;;;4904425;29;20219;-89
2021/01/07 03:20:33;;;;;;;7.30;6.40;;;6.60;48.30;;;;;;4904308;29;20294;-89
2021/01/07 03:22:58;;;;;;;4.93;4.43;;;6.60;48.40;;;;;;4905305;29;20486;-89
2021/01/07 03:25:52;;;;;;;5.03;4.53;;;6.60;48.20;;;;;;4905178;29;20254;-89
2021/01/07 03:28:18;;;;;;;6.00;5.40;;;6.80;48.90;;;;;;4905171;29;20171;-89
2021/01/07 03:30:43;;;;;;;4.67;4.27;;;6.60;48.20;;;;;;4905524;29;20195;-89
2021/01/07 03:33:49;;;;;;;5.70;5.10;;;6.50;48.40;;;;;;4905941;29;20203;-89
2021/01/07 03:36:14;;;;;;;5.68;5.07;;;6.30;49.20;;;;;;4905013;29;20163;-89
2021/01/07 03:38:40;;;;;;;6.80;5.40;;;5.70;48.50;;;;;;4904547;29;20234;-89
2021/01/07 03:41:20;;;;;;;7.20;4.97;;;5.90;48.50;;;;;;4904984;29;20552;-89
2021/01/07 03:43:45;;;;;;;6.40;5.70;;;6.50;48.70;;;;;;4904624;29;20640;-89
2021/01/07 03:46:45;;;;;;;5.23;4.73;;;6.60;48.60;;;;;;4904569;29;20167;-89
2021/01/07 03:49:11;;;;;;;6.20;5.60;;;6.50;49.10;;;;;;4905784;29;20163;-89
2021/01/07 03:51:36;;;;;;;6.23;4.90;;;5.90;47.90;;;;;;4904651;29;20191;-88
2021/01/07 03:54:08;;;;;;;5.77;4.93;;;5.80;48.50;;;;;;4904266;29;20195;-89
2021/01/07 03:56:34;;;;;;;4.97;4.47;;;6.50;48.80;;;;;;4921470;29;20255;-89
2021/01/07 03:58:59;;;;;;;5.13;4.70;;;6.80;49.20;;;;;;4904862;29;20211;-89
2021/01/07 04:01:25;;;;;;;5.30;4.83;;;6.40;49.00;;;;;;4904354;29;20218;-89
2021/01/07 04:03:51;;;;;;;5.00;4.50;;;6.80;49.20;;;;;;4904171;29;20649;-89
2021/01/07 04:06:16;;;;;;;4.70;4.30;;;6.50;49.10;;;;;;4904511;29;20193;-89
2021/01/07 04:08:55;;;;;;;5.40;4.70;;;6.70;49.10;;;;;;4904403;29;20175;-90
2021/01/07 04:11:21;;;;;;;4.40;4.00;;;6.00;48.50;;;;;;4903938;29;20177;-89
2021/01/07 04:13:47;;;;;;;4.67;4.27;;;6.50;48.80;;;;;;4903543;29;20561;-89
2021/01/07 04:16:13;;;;;;;5.67;5.10;;;6.00;48.40;;;;;;4921145;29;20167;-89
2021/01/07 04:18:39;;;;;;;4.90;4.40;;;6.60;48.80;;;;;;4902887;29;20772;-89
2021/01/07 04:21:45;;;;;;;6.60;5.80;;;6.60;48.90;;;;;;4903056;29;20171;-89
2021/01/07 04:24:15;;;;;;;5.30;4.80;;;6.50;49.50;;;;;;4903965;29;20541;-89
2021/01/07 04:26:47;;;;;;;6.13;5.63;;;6.50;49.50;;;;;;4903922;29;20167;-89
2021/01/07 04:29:13;;;;;;;5.00;4.60;;;6.70;49.00;;;;;;4920598;29;20167;-89
2021/01/07 04:31:39;;;;;;;5.35;4.85;;;6.50;48.80;;;;;;4903191;29;20167;-89
2021/01/07 04:34:29;;;;;;;5.68;5.05;;;6.60;48.90;;;;;;4903308;29;20194;-88
2021/01/07 04:36:54;;;;;;;7.32;6.30;;;6.60;49.40;;;;;;4902860;29;20178;-88
2021/01/07 04:39:20;;;;;;;5.57;5.07;;;6.30;48.70;;;;;;4902994;29;20535;-88
2021/01/07 04:41:47;;;;;;;6.13;5.10;;;6.00;48.50;;;;;;4902832;29;20245;-88
2021/01/07 04:44:12;;;;;;;5.65;5.15;;;6.40;48.70;;;;;;4902755;29;20175;-88
2021/01/07 04:46:40;;;;;;;5.37;4.87;;;6.60;48.70;;;;;;4902627;29;20227;-88
2021/01/07 04:49:05;;;;;;;6.35;5.63;;;6.60;48.70;;;;;;4902620;29;20230;-88
2021/01/07 04:51:31;;;;;;;10.00;7.63;;;6.00;48.20;;;;;;4902711;29;20171;-88
2021/01/07 04:53:59;;;;;;;6.97;5.80;;;6.60;48.50;;;;;;4903855;29;20203;-88
2021/01/07 04:56:25;;;;;;;8.20;6.35;;;6.70;48.50;;;;;;4903811;29;20199;-88
2021/01/07 04:58:50;;;;;;;5.03;4.60;;;6.20;48.10;;;;;;4903494;29;20167;-88
2021/01/07 05:01:16;;;;;;;6.40;5.80;;;6.30;48.50;;;;;;4919910;29;20199;-88
2021/01/07 05:03:45;;;;;;;5.73;5.20;;;6.60;49.10;;;;;;4902710;29;20270;-88
2021/01/07 05:06:11;;;;;;;6.53;5.88;;;6.20;49.00;;;;;;4903079;29;20177;-87
2021/01/07 05:09:06;;;;;;;6.72;6.13;;;6.30;49.50;;;;;;4903062;29;20573;-87
2021/01/07 05:11:33;;;;;;;6.70;5.88;;;6.60;49.70;;;;;;4903002;29;20201;-88
2021/01/07 05:14:20;;;;;;;7.35;6.47;;;6.70;48.90;;;;;;4902711;29;20195;-89
2021/01/07 05:16:46;;;;;;;6.85;6.20;;;6.50;49.30;;;;;;4902178;29;20159;-88
2021/01/07 05:19:12;;;;;;;6.80;5.80;;;6.80;48.70;;;;;;4902766;29;20173;-89
2021/01/07 05:22:00;;;;;;;7.20;5.70;;;6.50;48.50;;;;;;4902960;29;20160;-88
2021/01/07 05:24:26;;;;;;;8.75;6.28;;;6.60;49.20;;;;;;4904194;29;20191;-92
2021/01/07 05:26:51;;;;;;;8.50;7.33;;;6.50;48.50;;;;;;4903211;29;20163;-91
2021/01/07 05:29:23;;;;;;;7.60;6.80;;;6.70;48.40;;;;;;4902556;29;20202;-90
2021/01/07 05:31:52;;;;;;;8.85;7.35;;;6.40;48.10;;;;;;4902836;29;20177;-88
2021/01/07 05:34:18;;;;;;;8.80;6.72;;;6.40;48.50;;;;;;4902378;29;20242;-88
2021/01/07 05:37:05;;;;;;;6.00;5.17;;;6.40;48.60;;;;;;4902827;29;20171;-88
2021/01/07 05:39:34;;;;;;;7.00;6.03;;;6.40;49.30;;;;;;4902308;29;20174;-88
2021/01/07 05:42:03;;;;;;;6.85;6.10;;;6.20;48.50;;;;;;4902475;29;20685;-88
2021/01/07 05:45:08;;;;;;;8.48;6.53;;;6.30;48.50;;;;;;4902152;29;20170;-88
2021/01/07 05:47:46;;;;;;;7.00;6.03;;;6.50;49.40;;;;;;4902189;29;20175;-88
2021/01/07 05:50:13;;;;;;;7.68;6.45;;;6.50;49.40;;;;;;4901851;29;20170;-88
2021/01/07 05:52:42;;;;;;;8.77;7.88;;;6.30;49.40;;;;;;4902083;29;20273;-89
2021/01/07 05:55:16;;;;;;;6.53;5.85;;;6.40;48.80;;;;;;4901730;29;20195;-88
2021/01/07 05:57:42;;;;;;;6.95;5.55;;;6.50;48.90;;;;;;4901738;29;20648;-88
2021/01/07 06:00:10;;;;;;;10.60;9.60;;;6.00;48.40;;;;;;4902541;29;20195;-88
2021/01/07 06:02:38;;;;;;;8.48;7.60;;;6.40;48.80;;;;;;4901922;29;20294;-88
2021/01/07 06:05:23;;;;;;;11.10;7.85;;;6.30;48.90;;;;;;4902569;29;20222;-89
2021/01/07 06:07:52;;;;;;;12.00;10.10;;;6.70;50.30;;;;;;4902168;29;20415;-90
2021/01/07 06:10:50;;;;;;;11.55;8.25;;;6.60;50.40;;;;;;4902913;29;20167;-89
2021/01/07 06:13:16;;;;;;;9.48;7.50;;;6.00;50.60;;;;;;4901663;29;20685;-88
2021/01/07 06:15:46;;;;;;;8.13;7.33;;;6.10;50.00;;;;;;4901700;29;20246;-90
2021/01/07 06:18:28;;;;;;;9.95;8.90;;;6.20;49.60;;;;;;4902366;29;20203;-90
2021/01/07 06:21:01;;;;;;;10.52;7.20;;;6.20;49.30;;;;;;4902563;29;20175;-90
2021/01/07 06:23:58;;;;;;;8.90;6.85;;;6.50;49.50;;;;;;4902840;29;20172;-90
2021/01/07 06:26:26;;;;;;;12.60;7.72;;;6.10;49.10;;;;;;4887366;29;20553;-89
2021/01/07 06:29:04;;;;;;;9.90;8.55;;;5.90;49.90;;;;;;4901649;29;20512;-87
2021/01/07 06:31:35;;;;;;;8.82;7.43;;;6.30;49.10;;;;;;4901694;29;20238;-87
2021/01/07 06:34:01;;;;;;;8.25;7.07;;;6.00;48.70;;;;;;4918352;29;20187;-88
2021/01/07 06:36:42;;;;;;;10.03;9.00;;;6.50;49.50;;;;;;4901809;29;20167;-88
2021/01/07 06:39:08;;;;;;;9.73;8.73;;;6.30;49.50;;;;;;4901244;29;20471;-88
2021/01/07 06:41:54;;;;;;;7.00;6.30;;;6.30;49.30;;;;;;4903827;29;20178;-88
2021/01/07 06:44:20;;;;;;;9.40;7.05;;;6.10;50.20;;;;;;4904255;29;20183;-88
2021/01/07 06:46:55;;;;;;;11.95;7.10;;;6.40;50.20;;;;;;4904676;29;20646;-88
2021/01/07 06:49:26;;;;;;;13.38;9.18;;;6.00;50.20;;;;;;4904987;29;20506;-88
2021/01/07 06:52:07;;;;;;;10.02;7.80;;;5.90;49.90;;;;;;4905329;29;20171;-87
2021/01/07 06:54:35;;;;;;;8.25;7.05;;;5.70;49.70;;;;;;4905575;29;20794;-88
2021/01/07 06:57:11;;;;;;;11.27;9.20;;;6.10;50.00;;;;;;4906773;29;20451;-88
2021/01/07 06:59:53;;;;;;;12.10;7.85;;;5.90;49.20;;;;;;4906171;29;20167;-86
2021/01/07 07:02:20;;;;;;;12.07;9.70;;;6.30;50.50;;;;;;4904760;29;20234;-86
2021/01/07 07:04:47;;;;;;;13.65;9.85;;;5.10;50.60;;;;;;4905066;29;20634;-86
2021/01/07 07:07:32;;;;;;;12.43;10.77;;;5.50;52.20;;;;;;4905061;29;20171;-86
2021/01/07 07:10:17;;;;;;;9.60;8.05;;;5.40;54.10;;;;;;4905209;29;20686;-86
2021/01/07 07:12:54;;;;;;;11.55;8.40;;;5.00;53.50;;;;;;4904503;29;20283;-85
2021/01/07 07:15:24;;;;;;;9.75;8.75;;;5.20;53.70;;;;;;4904374;29;20171;-86
2021/01/07 07:17:53;;;;;;;12.73;9.88;;;5.40;52.10;;;;;;4904925;29;20538;-87
2021/01/07 07:20:44;;;;;;;10.02;8.45;;;5.80;52.20;;;;;;4904714;29;20202;-86
2021/01/07 07:23:21;;;;;;;9.90;8.30;;;5.70;52.10;;;;;;4921949;29;20164;-87
2021/01/07 07:26:05;;;;;;;10.93;8.80;;;5.70;50.80;;;;;;4905528;29;20166;-87
2021/01/07 07:28:33;;;;;;;9.70;8.70;;;5.90;50.70;;;;;;4906047;29;20530;-86
2021/01/07 07:31:00;;;;;;;9.60;8.30;;;6.10;50.30;;;;;;4904271;29;20277;-87
2021/01/07 07:33:40;;;;;;;13.38;10.30;;;6.20;49.80;;;;;;4906476;29;20190;-88
2021/01/07 07:36:10;;;;;;;9.00;7.90;;;5.90;49.20;;;;;;4904598;29;20632;-87
2021/01/07 07:38:38;;;;;;;11.52;9.30;;;6.40;49.90;;;;;;4903893;29;20426;-87
2021/01/07 07:41:16;;;;;;;8.98;7.95;;;6.10;48.70;;;;;;4904896;29;20175;-87
2021/01/07 07:43:41;;;;;;;9.25;8.15;;;6.10;48.70;;;;;;4904913;29;20253;-85
2021/01/07 07:46:23;;;;;;;8.73;7.77;;;6.00;48.00;;;;;;4904619;29;20203;-87
2021/01/07 07:48:56;;;;;;;9.30;8.32;;;6.70;47.90;;;;;;4905472;29;20202;-86
2021/01/07 07:51:43;;;;;;;11.13;9.43;;;6.60;48.50;;;;;;4904540;29;20167;-87
2021/01/07 07:54:11;;;;;;;8.77;7.85;;;6.30;48.80;;;;;;4905609;29;20202;-86
2021/01/07 07:56:46;;;;;;;11.38;8.60;;;6.10;48.70;;;;;;4905311;29;20246;-88
2021/01/07 07:59:11;;;;;;;12.57;10.52;;;6.50;48.20;;;;;;4906165;29;20166;-88
2021/01/07 08:01:49;;;;;;;11.93;10.27;;;5.90;48.50;;;;;;4906840;29;20286;-88
2021/01/07 08:04:20;;;;;;;9.88;8.88;;;6.10;48.40;;;;;;4892007;29;20512;-88
2021/01/07 08:06:48;;;;;;;9.02;8.13;;;6.40;48.30;;;;;;4906833;29;20631;-89
2021/01/07 08:09:21;;;;;;;10.33;8.50;;;6.40;48.50;;;;;;4906665;29;20466;-88
2021/01/07 08:11:48;;;;;;;12.68;8.80;;;6.00;48.30;;;;;;4906447;29;20417;-88
2021/01/07 08:14:20;;;;;;;8.70;7.88;;;6.70;48.40;;;;;;4905383;29;20665;-88
2021/01/07 08:16:46;;;;;;;20.35;16.45;;;6.50;48.10;;;;;;4906253;29;20200;-88
2021/01/07 08:19:21;;;;;;;13.40;11.90;;;6.10;48.40;;;;;;4891473;29;20638;-88
2021/01/07 08:22:25;;;;;;;12.57;11.38;;;6.10;48.30;;;;;;4905835;29;20198;-88
2021/01/07 08:24:51;;;;;;;13.60;10.18;;;6.00;49.60;;;;;;4904399;29;20262;-88
2021/01/07 08:27:22;;;;;;;17.08;15.38;;;5.70;49.50;;;;;;4903683;29;20415;-88
2021/01/07 08:29:57;;;;;;;13.70;11.57;;;5.40;50.10;;;;;;4903259;29;20171;-87
2021/01/07 08:32:43;;;;;;;13.45;11.75;;;4.80;50.80;;;;;;4920218;29;20206;-88
2021/01/07 08:35:14;;;;;;;16.40;14.23;;;5.60;51.80;;;;;;4903038;29;20526;-88
2021/01/07 08:37:43;;;;;;;15.43;13.88;;;5.50;51.40;;;;;;4902813;29;20178;-89
2021/01/07 08:40:10;;;;;;;17.92;16.20;;;5.50;50.70;;;;;;4903045;29;20814;-88
2021/01/07 08:42:38;;;;;;;22.98;18.08;;;5.50;50.90;;;;;;4902464;29;20178;-88
2021/01/07 08:45:05;;;;;;;15.25;13.70;;;5.40;50.70;;;;;;4902490;29;20171;-88
2021/01/07 08:47:32;;;;;;;15.18;12.13;;;5.20;51.90;;;;;;4902610;29;20175;-90
2021/01/07 08:50:08;;;;;;;16.05;13.30;;;4.60;52.50;;;;;;4919852;29;20555;-88
2021/01/07 08:52:53;;;;;;;27.60;15.20;;;5.30;52.60;;;;;;4903001;29;20175;-87
2021/01/07 08:55:41;;;;;;;15.85;11.48;;;5.20;51.70;;;;;;4902797;29;20591;-88
2021/01/07 08:58:06;;;;;;;17.33;12.38;;;5.40;52.30;;;;;;4902519;29;20178;-85
2021/01/07 09:00:32;;;;;;;14.53;11.57;;;5.10;52.00;;;;;;4903093;29;20537;-85
2021/01/07 09:03:02;;;;;;;13.47;10.87;;;5.10;51.70;;;;;;4902917;29;20226;-92
2021/01/07 09:05:29;;;;;;;15.13;11.63;;;5.10;51.70;;;;;;4903461;29;20261;-88
2021/01/07 09:08:12;;;;;;;16.70;13.40;;;5.10;52.00;;;;;;4901777;29;20918;-89
2021/01/07 09:10:39;;;;;;;12.88;11.50;;;5.20;52.20;;;;;;4902900;29;20430;-91
2021/01/07 09:13:55;;;;;;;12.55;10.60;;;5.10;52.10;;;;;;4902107;29;20470;-89
2021/01/07 09:16:21;;;;;;;12.57;11.15;;;5.40;53.00;;;;;;4918875;29;20431;-88
2021/01/07 09:18:48;;;;;;;13.63;12.23;;;5.50;52.00;;;;;;4901702;29;20769;-86
2021/01/07 09:21:14;;;;;;;13.88;11.60;;;6.10;51.40;;;;;;4901358;29;20582;-85
2021/01/07 09:23:50;;;;;;;12.88;11.48;;;5.60;51.50;;;;;;4901768;29;20595;-85
2021/01/07 09:26:31;;;;;;;15.55;12.77;;;5.00;50.40;;;;;;4898782;29;20187;-85
2021/01/07 09:29:10;;;;;;;12.27;10.57;;;5.30;52.50;;;;;;4899798;29;21191;-85
2021/01/07 09:31:36;;;;;;;14.90;12.68;;;5.30;52.00;;;;;;4895466;29;20898;-85
2021/01/07 09:34:40;;;;;;;12.70;11.40;;;4.80;51.60;;;;;;4902259;29;20523;-85
2021/01/07 09:37:12;;;;;;;14.23;11.82;;;5.50;53.20;;;;;;4891943;29;20435;-85
2021/01/07 09:39:43;;;;;;;15.00;12.90;;;5.20;53.40;;;;;;4888107;29;20436;-87
2021/01/07 09:42:10;;;;;;;17.38;15.57;;;5.30;52.50;;;;;;4897066;29;20419;-84
2021/01/07 09:44:38;;;;;;;17.60;15.80;;;5.30;52.20;;;;;;4884896;29;21088;-89
2021/01/07 09:47:05;;;;;;;15.93;14.27;;;5.70;53.30;;;;;;4915565;29;20566;-90
2021/01/07 09:49:32;;;;;;;18.43;16.57;;;5.60;52.00;;;;;;4900755;29;20502;-92
2021/01/07 09:51:59;;;;;;;17.60;15.18;;;5.60;52.00;;;;;;4901923;29;20941;-91
2021/01/07 09:54:32;;;;;;;18.45;15.82;;;6.00;51.40;;;;;;4901310;29;20936;-90
2021/01/07 09:56:59;;;;;;;16.60;14.95;;;5.70;51.10;;;;;;4901095;29;20435;-90
2021/01/07 09:59:44;;;;;;;17.10;13.65;;;5.10;51.20;;;;;;4920349;29;20159;-93
2021/01/07 10:02:45;;;;;;;14.82;12.65;;;5.70;52.10;;;;;;4903263;29;20237;-90
2021/01/07 10:05:12;;;;;;;14.82;12.02;;;5.70;51.30;;;;;;4918992;29;20163;-89
2021/01/07 10:07:58;;;;;;;16.95;11.30;;;5.80;51.70;;;;;;4902239;29;20178;-91
2021/01/07 10:10:23;;;;;;;14.50;13.00;;;5.80;51.40;;;;;;4901486;29;20175;-89
2021/01/07 10:12:49;;;;;;;14.83;12.27;;;5.90;51.20;;;;;;4902109;29;20741;-90
2021/01/07 10:15:15;;;;;;;13.57;11.70;;;6.20;51.00;;;;;;4903328;29;20190;-90
2021/01/07 10:18:02;;;;;;;15.23;12.55;;;5.70;50.40;;;;;;4905679;29;20437;-91
2021/01/07 10:20:27;;;;;;;14.82;13.23;;;6.40;51.60;;;;;;4906037;29;20557;-90
2021/01/07 10:22:55;;;;;;;14.48;12.75;;;6.00;50.00;;;;;;4906081;29;20475;-90
2021/01/07 10:25:21;;;;;;;13.73;12.15;;;5.80;51.60;;;;;;4905994;29;20906;-90
2021/01/07 10:28:08;;;;;;;13.65;12.35;;;5.30;50.90;;;;;;4906402;29;20562;-88
2021/01/07 10:30:33;;;;;;;13.95;11.25;;;6.00;50.60;;;;;;4905750;29;20638;-94
2021/01/07 10:33:00;;;;;;;15.83;13.43;;;6.20;49.40;;;;;;4906500;29;20226;-92
2021/01/07 10:35:26;;;;;;;13.77;10.70;;;6.00;49.40;;;;;;4906913;29;20178;-90
2021/01/07 10:38:10;;;;;;;15.57;12.23;;;6.30;49.40;;;;;;4907026;29;20171;-90
2021/01/07 10:40:42;;;;;;;15.80;12.00;;;5.80;49.80;;;;;;4907161;29;20179;-90
2021/01/07 10:43:14;;;;;;;14.02;11.65;;;6.80;49.20;;;;;;4923059;29;20170;-91
2021/01/07 10:45:40;;;;;;;15.50;12.30;;;6.00;51.30;;;;;;4905487;29;20178;-90
2021/01/07 10:48:13;;;;;;;13.10;11.77;;;6.00;50.50;;;;;;4905842;29;20198;-90
2021/01/07 10:50:41;;;;;;;12.70;11.35;;;6.30;49.80;;;;;;4905469;29;20179;-90
2021/01/07 10:53:12;;;;;;;15.38;11.40;;;6.20;50.60;;;;;;4905848;29;20207;-90
2021/01/07 10:55:53;;;;;;;14.10;11.13;;;6.30;49.90;;;;;;4904849;29;20171;-90
2021/01/07 10:58:28;;;;;;;14.20;11.80;;;6.50;49.40;;;;;;4905514;29;20591;-89
2021/01/07 11:01:13;;;;;;;13.10;11.70;;;6.90;47.80;;;;;;4905071;29;20199;-89
2021/01/07 11:04:32;;;;;;;14.10;10.82;;;7.10;47.30;;;;;;4904609;29;20193;-89
2021/01/07 11:07:37;;;;;;;14.20;10.23;;;7.10;46.60;;;;;;4904598;29;20371;-89
2021/01/07 11:10:06;;;;;;;15.38;11.13;;;7.00;45.90;;;;;;4904615;29;20552;-89
2021/01/07 11:13:06;;;;;;;11.65;10.45;;;7.60;46.10;;;;;;4904869;29;20175;-90
2021/01/07 11:15:33;;;;;;;13.48;11.70;;;8.10;45.60;;;;;;4904325;29;20269;-90
2021/01/07 11:18:19;;;;;;;13.95;11.55;;;8.00;44.30;;;;;;4903990;29;20615;-89
2021/01/07 11:20:56;;;;;;;13.25;11.43;;;8.00;44.20;;;;;;4904580;29;20229;-89
2021/01/07 11:23:22;;;;;;;11.82;10.50;;;8.30;43.90;;;;;;4904377;29;20171;-91
2021/01/07 11:25:49;;;;;;;14.53;11.83;;;8.30;43.20;;;;;;4903867;29;20186;-90
2021/01/07 11:28:18;;;;;;;13.43;12.02;;;7.50;42.50;;;;;;4903898;29;20934;-91
2021/01/07 11:30:46;;;;;;;14.60;13.05;;;7.50;44.50;;;;;;4903653;29;20167;-91
2021/01/07 11:33:14;;;;;;;17.40;13.77;;;7.10;44.20;;;;;;4903775;29;20206;-91
2021/01/07 11:35:44;;;;;;;14.07;10.45;;;7.10;46.30;;;;;;4903962;29;20175;-88
2021/01/07 11:38:34;;;;;;;14.43;11.57;;;7.00;47.30;;;;;;4904363;29;20222;-89
2021/01/07 11:41:30;;;;;;;16.25;12.45;;;6.50;47.30;;;;;;4903968;29;20558;-89
2021/01/07 11:44:24;;;;;;;23.08;20.67;;;6.60;46.80;;;;;;4904522;29;20250;-91
2021/01/07 11:46:52;;;;;;;26.98;23.98;;;6.70;46.50;;;;;;4904825;29;20174;-93
2021/01/07 11:49:19;;;;;;;15.00;12.18;;;7.00;46.80;;;;;;4905083;29;20175;-93
2021/01/07 11:52:10;;;;;;;13.13;11.35;;;7.00;45.30;;;;;;4908933;29;20171;-91
2021/01/07 11:54:39;;;;;;;12.20;10.80;;;7.20;46.90;;;;;;4911506;29;20206;-95
2021/01/07 11:57:08;;;;;;;14.18;11.80;;;7.80;45.90;;;;;;4909308;29;20179;-92
2021/01/07 12:00:03;;;;;;;10.82;9.73;;;7.30;44.60;;;;;;4908330;29;20163;-91
2021/01/07 12:02:42;;;;;;;13.07;11.68;;;7.90;45.00;;;;;;4904541;29;20685;-91
2021/01/07 12:06:05;;;;;;;27.00;18.17;;;8.00;43.40;;;;;;4921813;29;20162;-91
2021/01/07 12:09:09;;;;;;;25.48;19.30;;;8.10;43.00;;;;;;4899557;29;20194;-92
2021/01/07 12:12:09;;;;;;;19.70;17.20;;;8.10;43.50;;;;;;4904372;29;20166;-90
2021/01/07 12:14:52;;;;;;;15.63;13.70;;;7.90;43.80;;;;;;4905335;29;20286;-89
2021/01/07 12:17:57;;;;;;;15.95;14.07;;;7.50;43.70;;;;;;4904096;29;20270;-90
2021/01/07 12:20:22;;;;;;;13.77;12.38;;;8.00;44.50;;;;;;4903987;29;20163;-90
2021/01/07 12:22:51;;;;;;;13.80;9.90;;;7.50;44.70;;;;;;4920617;29;20202;-90
2021/01/07 12:25:17;;;;;;;10.23;9.23;;;7.70;44.30;;;;;;4905221;29;20163;-89
2021/01/07 12:27:47;;;;;;;11.30;9.73;;;8.10;43.50;;;;;;4903783;29;20174;-89
2021/01/07 12:30:50;;;;;;;12.18;10.98;;;8.40;43.50;;;;;;4904040;29;20195;-89
2021/01/07 12:33:21;;;;;;;11.57;10.38;;;8.00;43.00;;;;;;4904296;29;20289;-89
2021/01/07 12:36:06;;;;;;;12.35;10.85;;;8.10;43.30;;;;;;4898193;29;20188;-89
2021/01/07 12:38:34;;;;;;;10.23;9.07;;;8.00;44.40;;;;;;4884910;29;20171;-89
2021/01/07 12:41:06;;;;;;;12.65;11.05;;;7.10;43.50;;;;;;4885989;29;20491;-90
2021/01/07 12:43:49;;;;;;;12.93;10.73;;;7.40;45.00;;;;;;4885164;29;20175;-89
2021/01/07 12:46:18;;;;;;;13.10;11.05;;;6.80;45.10;;;;;;4886731;29;20171;-90
2021/01/07 12:48:45;;;;;;;11.07;9.98;;;7.20;46.00;;;;;;4893253;29;20183;-90
2021/01/07 12:51:14;;;;;;;14.27;12.50;;;6.60;47.50;;;;;;4891397;29;20175;-90
2021/01/07 12:53:42;;;;;;;14.75;13.15;;;6.50;47.80;;;;;;4894349;29;20191;-90
2021/01/07 12:56:14;;;;;;;14.80;13.30;;;6.70;47.50;;;;;;4894057;29;20171;-91
2021/01/07 12:58:43;;;;;;;14.40;13.00;;;6.50;46.90;;;;;;4891993;29;20513;-89
2021/01/07 13:01:23;;;;;;;16.08;13.05;;;6.70;47.70;;;;;;4888036;29;20172;-89
2021/01/07 13:04:00;;;;;;;13.32;11.93;;;6.80;48.20;;;;;;4882177;29;20201;-90
2021/01/07 13:06:55;;;;;;;14.48;11.43;;;6.60;48.60;;;;;;4882731;29;20180;-89
2021/01/07 13:09:25;;;;;;;14.02;12.57;;;7.00;47.10;;;;;;4882345;29;20263;-88
2021/01/07 13:12:08;;;;;;;15.68;12.10;;;7.00;45.80;;;;;;4888684;29;20171;-88
2021/01/07 13:14:34;;;;;;;16.23;12.52;;;6.90;45.80;;;;;;4884154;29;20575;-88
2021/01/07 13:17:17;;;;;;;10.80;9.63;;;7.60;46.50;;;;;;4892075;29;20231;-88
2021/01/07 13:19:43;;;;;;;10.95;9.90;;;6.90;46.40;;;;;;4864954;29;20175;-89
2021/01/07 13:22:15;;;;;;;11.40;9.13;;;7.20;46.50;;;;;;4898884;29;20179;-89
2021/01/07 13:24:41;;;;;;;10.77;9.68;;;7.20;45.40;;;;;;4893517;29;20440;-88
2021/01/07 13:27:36;;;;;;;9.87;8.80;;;7.10;44.80;;;;;;4883561;29;20168;-88
2021/01/07 13:30:03;;;;;;;12.40;11.10;;;7.10;46.00;;;;;;4901676;29;20419;-88